Time;durP1;ratioP1;P1;durP2;ratioP2;P2;SDS_P1;SDS_P2;PMS_P1;PMS_P2;Temp;Humidity;BMP_temperature;BMP_pressure;BME280_temperature;BME280_humidity;BME280_pressure;Samples;Min_cycle;Max_cycle;Signal;HPM_P1;HPM_P2
2021/10/06 00:00:34;;;;;;;1.07;1.03;;;12.10;86.00;;;11.10;87.71;97730.69;5026000;28;20462;-81
2021/10/06 00:03:03;;;;;;;3.03;1.33;;;12.10;86.20;;;11.00;86.90;97730.38;5027044;28;20482;-81
2021/10/06 00:05:31;;;;;;;1.20;1.10;;;12.00;85.70;;;10.95;87.14;97733.75;5029673;28;20582;-81
2021/10/06 00:07:58;;;;;;;1.83;1.40;;;12.00;85.30;;;10.84;87.61;97727.22;5025768;28;20707;-81
2021/10/06 00:10:25;;;;;;;1.70;1.07;;;12.00;86.10;;;10.80;87.40;97733.28;5026765;28;20544;-81
2021/10/06 00:12:53;;;;;;;4.30;1.60;;;11.90;85.80;;;10.62;88.97;97734.91;5025659;28;20478;-80
2021/10/06 00:15:20;;;;;;;1.33;1.23;;;11.80;86.70;;;10.48;88.71;97729.63;5021388;28;20488;-80
2021/10/06 00:17:47;;;;;;;1.73;1.00;;;11.60;86.80;;;10.51;89.35;97733.78;5027421;28;20545;-82
2021/10/06 00:20:15;;;;;;;1.47;1.30;;;11.60;87.20;;;10.34;88.80;97746.97;5028726;28;20490;-81
2021/10/06 00:22:42;;;;;;;3.23;1.30;;;11.50;86.90;;;10.30;88.37;97748.47;5028396;28;20464;-82
2021/10/06 00:25:10;;;;;;;1.60;1.20;;;11.40;86.40;;;10.23;88.74;97753.09;5026037;28;20474;-81
2021/10/06 00:27:37;;;;;;;2.10;1.53;;;11.30;86.80;;;10.21;88.90;97764.13;5025956;28;20465;-81
2021/10/06 00:30:07;;;;;;;3.03;1.70;;;11.30;87.10;;;10.10;89.78;97759.41;5026601;28;20954;-81
2021/10/06 00:32:33;;;;;;;1.73;1.47;;;11.30;87.20;;;9.89;90.30;97767.63;5027291;28;20473;-81
2021/10/06 00:35:00;;;;;;;1.97;1.30;;;11.10;88.80;;;9.83;91.70;97764.97;5026763;28;20577;-81
2021/10/06 00:37:27;;;;;;;3.20;1.60;;;11.00;90.10;;;9.81;91.64;97770.63;5027570;28;20462;-81
2021/10/06 00:39:54;;;;;;;2.73;1.47;;;10.90;90.00;;;9.67;92.20;97774.44;5029044;28;20481;-80
2021/10/06 00:42:21;;;;;;;1.87;1.40;;;10.80;90.40;;;9.74;92.01;97783.28;5025385;28;22678;-81
2021/10/06 00:44:48;;;;;;;2.27;1.47;;;10.80;90.50;;;9.63;92.59;97787.50;5028795;28;20561;-81
2021/10/06 00:47:16;;;;;;;4.20;1.70;;;10.70;90.80;;;9.53;92.80;97793.38;5027803;28;20475;-80
2021/10/06 00:49:43;;;;;;;1.57;1.30;;;10.70;90.80;;;9.47;93.18;97792.34;5027600;28;20542;-80
2021/10/06 00:52:13;;;;;;;2.90;1.70;;;10.60;91.00;;;9.44;93.15;97794.63;5028072;28;20469;-80
2021/10/06 00:54:40;;;;;;;2.37;1.60;;;10.60;91.30;;;9.29;93.49;97794.91;5035711;28;20493;-79
2021/10/06 00:57:07;;;;;;;2.53;1.73;;;10.40;91.50;;;9.33;93.65;97799.69;5026061;28;20803;-82
2021/10/06 00:59:35;;;;;;;3.30;1.70;;;10.50;91.90;;;9.43;92.76;97798.38;5024852;28;20556;-81
2021/10/06 01:02:02;;;;;;;7.20;1.87;;;10.50;91.80;;;9.40;92.81;97799.66;5026614;28;20473;-81
2021/10/06 01:04:30;;;;;;;2.20;1.37;;;10.50;91.40;;;9.46;92.33;97795.25;5028599;28;20553;-81
2021/10/06 01:06:57;;;;;;;5.00;2.10;;;10.50;91.40;;;9.50;93.04;97804.59;5028370;28;20935;-81
2021/10/06 01:09:29;;;;;;;1.77;1.53;;;10.50;91.50;;;9.55;92.75;97806.63;5027876;28;20450;-81
2021/10/06 01:11:58;;;;;;;1.67;1.20;;;10.60;91.00;;;9.71;90.86;97806.16;5028788;28;20470;-82
2021/10/06 01:14:26;;;;;;;4.10;2.03;;;10.80;90.20;;;9.69;91.22;97802.81;5027059;28;20489;-81
2021/10/06 01:16:53;;;;;;;4.53;1.73;;;10.80;89.70;;;9.61;90.70;97800.38;5027759;28;20635;-81
2021/10/06 01:19:23;;;;;;;4.40;2.23;;;10.80;89.50;;;9.54;92.22;97800.41;5042907;28;20546;-82
2021/10/06 01:21:53;;;;;;;3.20;2.30;;;10.70;90.20;;;9.46;92.32;97808.72;5031225;28;20455;-82
2021/10/06 01:24:21;;;;;;;3.70;2.10;;;10.60;90.30;;;9.50;92.28;97799.19;5023400;28;20550;-80
2021/10/06 01:26:48;;;;;;;1.83;1.70;;;10.60;90.70;;;9.52;91.26;97790.88;5027385;28;20466;-80
2021/10/06 01:29:15;;;;;;;4.53;1.90;;;10.70;90.00;;;9.49;92.23;97792.16;5029018;28;20450;-82
2021/10/06 01:31:43;;;;;;;3.60;1.93;;;10.70;90.40;;;9.50;91.25;97799.19;5026792;28;20462;-81
2021/10/06 01:34:10;;;;;;;1.93;1.73;;;10.70;90.30;;;9.54;91.20;97811.19;5025140;28;20983;-81
2021/10/06 01:36:38;;;;;;;2.93;1.70;;;10.70;90.10;;;9.50;91.79;97809.97;5023736;28;20452;-81
2021/10/06 01:39:08;;;;;;;3.30;1.87;;;10.70;90.10;;;9.56;91.84;97806.41;5026872;28;20986;-80
2021/10/06 01:41:36;;;;;;;3.60;1.67;;;10.70;90.20;;;9.58;90.80;97803.53;5025429;28;20485;-81
2021/10/06 01:44:04;;;;;;;1.93;1.40;;;10.70;89.40;;;9.68;89.74;97813.84;5021452;28;20979;-80
2021/10/06 01:46:31;;;;;;;4.10;1.80;;;10.80;88.40;;;9.58;90.31;97807.03;5028213;28;20970;-81
2021/10/06 01:48:58;;;;;;;2.90;1.80;;;10.80;88.20;;;9.62;90.13;97810.94;5023031;28;20550;-80
2021/10/06 01:51:25;;;;;;;2.60;1.60;;;10.80;88.90;;;9.55;90.83;97812.84;5027921;28;20462;-80
2021/10/06 01:53:52;;;;;;;3.00;1.80;;;10.80;88.60;;;9.49;91.39;97819.94;5026868;28;20833;-82
2021/10/06 01:56:20;;;;;;;2.00;1.77;;;10.70;89.70;;;9.49;91.17;97814.53;5023634;28;20539;-81
2021/10/06 01:58:49;;;;;;;2.60;1.70;;;10.70;89.90;;;9.49;91.60;97827.22;5023334;28;20455;-82
2021/10/06 02:01:16;;;;;;;2.70;2.00;;;10.70;90.10;;;9.43;92.50;97819.94;5023580;28;20454;-81
2021/10/06 02:03:43;;;;;;;4.03;1.80;;;10.60;90.20;;;9.55;91.04;97829.03;5023482;28;20485;-83
2021/10/06 02:06:10;;;;;;;2.70;1.90;;;10.60;90.30;;;9.54;92.02;97840.88;5025643;28;20577;-82
2021/10/06 02:08:37;;;;;;;4.20;1.80;;;10.70;90.30;;;9.49;92.27;97838.00;5027646;28;20465;-81
2021/10/06 02:11:04;;;;;;;2.73;1.70;;;10.70;90.50;;;9.42;91.50;97840.72;5024970;28;20465;-81
2021/10/06 02:13:32;;;;;;;4.60;2.33;;;10.60;90.40;;;9.49;92.12;97836.09;5020559;28;20490;-82
2021/10/06 02:16:00;;;;;;;2.93;1.83;;;10.70;90.60;;;9.41;93.09;97828.28;5025632;28;20486;-82
2021/10/06 02:18:27;;;;;;;4.10;1.80;;;10.60;91.00;;;9.42;93.29;97834.47;5027824;28;20549;-81
2021/10/06 02:20:54;;;;;;;3.70;1.90;;;10.60;91.10;;;9.47;92.08;97829.25;5025373;28;20507;-82
2021/10/06 02:23:21;;;;;;;2.70;1.53;;;10.70;90.50;;;9.56;91.85;97833.38;5025954;28;20466;-81
2021/10/06 02:25:48;;;;;;;4.23;1.60;;;10.60;90.60;;;9.53;92.23;97833.81;5024616;28;20513;-81
2021/10/06 02:28:15;;;;;;;1.67;1.57;;;10.70;90.60;;;9.54;91.50;97823.84;5018934;28;20525;-81
2021/10/06 02:30:45;;;;;;;2.30;1.53;;;10.70;90.30;;;9.50;92.66;97839.66;5025063;28;20633;-83
2021/10/06 02:33:12;;;;;;;2.10;1.77;;;10.70;90.70;;;9.45;92.78;97834.03;5022543;28;20448;-83
2021/10/06 02:35:39;;;;;;;5.03;1.83;;;10.60;90.80;;;9.58;91.95;97839.41;5024469;28;20497;-83
2021/10/06 02:38:05;;;;;;;4.13;1.57;;;10.70;90.60;;;9.47;92.67;97848.13;5025903;28;20458;-83
2021/10/06 02:40:32;;;;;;;2.63;1.60;;;10.70;90.60;;;9.54;92.45;97859.75;5025901;28;20477;-83
2021/10/06 02:42:59;;;;;;;5.30;2.30;;;10.60;91.20;;;9.57;91.74;97861.19;5024719;28;20532;-80
2021/10/06 02:45:26;;;;;;;3.70;1.90;;;10.70;90.60;;;9.56;92.58;97856.84;5021694;28;20487;-80
2021/10/06 02:47:55;;;;;;;1.53;1.43;;;10.70;90.80;;;9.48;91.72;97857.91;5025399;28;20458;-80
2021/10/06 02:50:24;;;;;;;6.10;1.80;;;10.70;90.70;;;9.49;92.80;97860.38;5023946;28;20459;-77
2021/10/06 02:52:52;;;;;;;3.73;2.13;;;10.60;90.80;;;9.56;91.64;97854.16;5019531;28;20480;-74
2021/10/06 02:55:20;;;;;;;4.63;1.90;;;10.70;90.20;;;9.52;92.01;97861.00;5022121;28;20485;-74
2021/10/06 02:57:47;;;;;;;3.40;1.40;;;10.70;90.30;;;9.55;91.99;97856.00;5023866;28;20829;-74
2021/10/06 03:00:15;;;;;;;2.80;1.50;;;10.70;90.50;;;9.60;91.79;97853.50;5026100;28;20466;-74
2021/10/06 03:02:42;;;;;;;2.50;1.83;;;10.80;90.40;;;9.71;90.87;97854.72;5018925;28;20569;-74
2021/10/06 03:05:11;;;;;;;3.10;1.90;;;10.80;89.40;;;9.72;91.25;97850.13;5025268;28;21022;-75
2021/10/06 03:07:40;;;;;;;4.00;1.50;;;10.90;89.80;;;9.76;90.66;97851.34;5024103;28;20458;-76
2021/10/06 03:10:10;;;;;;;4.00;2.13;;;10.90;89.50;;;9.72;91.12;97852.84;5026500;28;20462;-77
2021/10/06 03:12:38;;;;;;;2.97;2.17;;;10.90;89.20;;;9.74;90.40;97867.78;5026711;28;20450;-77
2021/10/06 03:15:06;;;;;;;6.40;2.37;;;10.90;89.00;;;9.72;89.87;97874.41;5025100;28;20525;-77
2021/10/06 03:17:34;;;;;;;7.30;1.73;;;10.90;88.00;;;9.66;91.28;97869.88;5027008;28;20465;-77
2021/10/06 03:20:00;;;;;;;6.37;2.03;;;10.80;89.20;;;9.55;91.48;97871.34;5028708;28;20993;-76
2021/10/06 03:22:29;;;;;;;3.63;1.70;;;10.80;89.30;;;9.61;90.75;97887.50;5026436;28;20468;-75
2021/10/06 03:24:56;;;;;;;4.83;2.23;;;10.80;88.80;;;9.57;90.62;97880.09;5027916;28;20482;-72
2021/10/06 03:27:23;;;;;;;2.63;1.63;;;10.70;88.60;;;9.62;90.18;97882.97;5036825;28;20656;-83
2021/10/06 03:29:50;;;;;;;3.30;1.90;;;10.80;88.30;;;9.53;91.05;97885.06;5016602;28;21005;-80
2021/10/06 03:32:17;;;;;;;1.57;1.47;;;10.80;88.60;;;9.57;91.48;97891.69;5019178;28;20454;-82
2021/10/06 03:34:43;;;;;;;2.37;1.43;;;10.70;89.50;;;9.67;90.21;97899.31;5015995;28;20488;-84
2021/10/06 03:37:11;;;;;;;2.47;1.43;;;10.80;88.60;;;9.69;90.17;97909.91;5022605;28;20820;-83
2021/10/06 03:39:40;;;;;;;3.47;2.00;;;10.80;88.10;;;9.71;90.40;97907.84;5018549;28;21014;-84
2021/10/06 03:42:07;;;;;;;7.43;1.93;;;10.80;87.80;;;9.70;90.05;97908.88;5019049;28;20466;-81
2021/10/06 03:44:34;;;;;;;4.43;1.47;;;10.90;87.60;;;9.70;89.43;97908.88;5019699;28;20462;-81
2021/10/06 03:47:01;;;;;;;1.90;1.37;;;10.90;86.30;;;9.63;89.24;97904.34;5019580;28;20541;-81
2021/10/06 03:49:27;;;;;;;1.63;1.43;;;10.80;86.70;;;9.69;88.98;97896.44;5043191;28;20451;-81
2021/10/06 03:51:54;;;;;;;1.87;1.30;;;10.90;86.90;;;9.69;89.45;97915.31;5020121;28;20469;-81
2021/10/06 03:54:21;;;;;;;3.20;1.50;;;10.90;86.40;;;9.65;89.78;97925.69;5025923;28;20478;-81
2021/10/06 03:56:50;;;;;;;1.50;1.33;;;10.90;86.50;;;9.68;89.30;97914.47;5019364;28;20458;-82
2021/10/06 03:59:17;;;;;;;1.57;1.47;;;10.90;86.80;;;9.66;89.89;97919.25;5021614;28;20565;-82
2021/10/06 04:01:43;;;;;;;2.43;1.73;;;10.90;86.90;;;9.79;89.48;97926.50;5021826;28;20451;-82
2021/10/06 04:04:11;;;;;;;2.40;1.80;;;10.90;87.70;;;9.76;89.65;97932.28;5027994;28;20476;-84
2021/10/06 04:06:38;;;;;;;3.33;2.00;;;10.90;87.40;;;9.69;89.45;97940.41;5027626;28;20548;-83
2021/10/06 04:09:05;;;;;;;2.27;1.97;;;10.80;87.90;;;9.71;90.30;97945.59;5027031;28;20477;-83
2021/10/06 04:11:32;;;;;;;3.73;1.50;;;10.80;88.30;;;9.63;90.63;97950.19;5025714;28;20549;-82
2021/10/06 04:14:00;;;;;;;2.90;1.70;;;10.80;88.70;;;9.72;90.61;97952.66;5021618;28;20467;-82
2021/10/06 04:16:27;;;;;;;1.50;1.40;;;10.80;88.90;;;9.72;91.05;97947.25;5037370;28;20459;-82
2021/10/06 04:18:54;;;;;;;3.70;1.80;;;10.90;89.00;;;9.64;90.17;97951.84;5021171;28;20465;-82
2021/10/06 04:21:21;;;;;;;2.50;2.00;;;10.80;88.80;;;9.64;90.58;97951.00;5041604;28;20827;-82
2021/10/06 04:23:48;;;;;;;2.53;1.90;;;10.80;88.10;;;9.72;90.67;97955.34;5022850;28;20446;-81
2021/10/06 04:26:15;;;;;;;3.20;1.87;;;10.90;88.10;;;9.73;90.08;97965.09;5023891;28;20565;-81
2021/10/06 04:28:42;;;;;;;2.60;1.67;;;10.90;88.30;;;9.70;89.24;97970.94;5022718;28;20465;-82
2021/10/06 04:31:11;;;;;;;4.33;1.60;;;10.80;86.90;;;9.71;89.21;97972.56;5021003;28;20510;-82
2021/10/06 04:33:37;;;;;;;3.63;1.50;;;10.80;87.10;;;9.55;90.25;97969.28;5026096;28;21033;-82
2021/10/06 04:36:06;;;;;;;3.37;1.50;;;10.80;87.40;;;9.41;90.81;97983.81;5028142;28;21002;-82
2021/10/06 04:38:33;;;;;;;2.80;1.60;;;10.70;88.30;;;9.54;90.07;97978.41;5020392;28;20566;-82
2021/10/06 04:41:01;;;;;;;20.17;5.00;;;10.60;88.90;;;9.64;92.82;97973.44;5041016;28;20488;-81
2021/10/06 04:43:28;;;;;;;4.80;1.83;;;10.70;91.50;;;9.58;92.09;97974.25;5020397;28;20541;-81
2021/10/06 04:45:55;;;;;;;1.60;1.50;;;10.70;90.60;;;9.47;90.20;97958.72;5019773;28;21038;-81
2021/10/06 04:48:23;;;;;;;5.83;3.53;;;10.70;88.80;;;9.58;91.08;97968.88;5017013;28;20467;-81
2021/10/06 04:50:50;;;;;;;4.13;2.73;;;10.70;89.40;;;9.58;90.24;97976.97;5022985;28;20482;-81
2021/10/06 04:53:17;;;;;;;5.47;2.53;;;10.70;89.40;;;9.53;90.90;97970.53;5025209;28;20520;-82
2021/10/06 04:55:45;;;;;;;3.87;1.63;;;10.70;89.30;;;9.43;90.14;97969.09;5025654;28;20501;-80
2021/10/06 04:58:11;;;;;;;6.30;2.40;;;10.60;87.40;;;9.46;90.79;97976.78;5013601;28;20549;-82
2021/10/06 05:00:39;;;;;;;6.07;1.80;;;10.60;89.20;;;9.55;90.24;97985.47;5033245;28;20534;-83
2021/10/06 05:03:07;;;;;;;3.90;1.53;;;10.70;88.90;;;9.63;89.65;97977.19;5023376;28;20793;-84
2021/10/06 05:05:38;;;;;;;3.20;1.43;;;10.70;88.00;;;9.63;90.51;97996.06;5024829;28;20474;-81
2021/10/06 05:08:06;;;;;;;2.90;1.77;;;10.70;88.30;;;9.46;89.80;97989.41;5029503;28;20520;-81
2021/10/06 05:10:33;;;;;;;5.13;2.63;;;10.70;86.90;;;9.37;89.78;97988.81;5043915;28;20549;-81
2021/10/06 05:13:00;;;;;;;3.40;2.27;;;10.60;88.10;;;9.35;90.17;97991.72;5022244;28;20473;-81
2021/10/06 05:15:27;;;;;;;1.63;1.47;;;10.50;88.20;;;9.29;90.70;97997.94;5027649;28;20484;-81
2021/10/06 05:17:55;;;;;;;2.20;1.53;;;10.50;89.20;;;9.27;91.69;98001.88;5027830;28;20466;-82
2021/10/06 05:20:22;;;;;;;2.90;1.43;;;10.50;89.90;;;9.18;92.06;97995.88;5027551;28;20677;-81
2021/10/06 05:22:50;;;;;;;4.17;2.00;;;10.40;89.60;;;9.14;91.65;98000.00;5026880;28;20463;-81
2021/10/06 05:25:17;;;;;;;3.63;1.70;;;10.40;90.40;;;9.27;91.96;97994.63;5024661;28;20850;-81
2021/10/06 05:27:44;;;;;;;2.73;1.73;;;10.40;90.60;;;9.25;91.37;97995.84;5023316;28;20459;-80
2021/10/06 05:30:13;;;;;;;2.90;1.70;;;10.40;90.20;;;9.34;91.76;97998.16;5042912;28;20541;-80
2021/10/06 05:32:41;;;;;;;3.47;1.97;;;10.50;90.10;;;9.21;91.05;97995.47;5026162;28;20470;-72
2021/10/06 05:35:10;;;;;;;8.33;2.03;;;10.50;89.50;;;9.39;90.18;98007.47;5021411;28;20520;-72
2021/10/06 05:37:37;;;;;;;3.70;2.10;;;10.50;88.80;;;9.36;89.49;97997.94;5023075;28;20561;-74
2021/10/06 05:40:08;;;;;;;3.53;1.80;;;10.50;87.50;;;9.49;89.04;97997.94;5024572;28;20494;-73
2021/10/06 05:42:35;;;;;;;3.00;1.50;;;10.60;87.40;;;9.60;89.67;98004.53;5022896;28;20534;-75
2021/10/06 05:45:02;;;;;;;6.90;2.00;;;10.70;88.30;;;9.50;89.63;98006.84;5026944;28;20557;-74
2021/10/06 05:47:29;;;;;;;4.60;1.73;;;10.70;87.30;;;9.54;89.16;98005.41;5029026;28;20461;-72
2021/10/06 05:49:56;;;;;;;3.40;1.73;;;10.70;87.90;;;9.73;87.65;98008.28;5023269;28;20549;-73
2021/10/06 05:52:23;;;;;;;5.80;2.33;;;10.80;86.50;;;9.54;88.74;98007.25;5022540;28;20458;-72
2021/10/06 05:54:51;;;;;;;3.83;1.80;;;10.70;86.40;;;9.61;88.00;98008.09;5021504;28;20577;-73
2021/10/06 05:57:19;;;;;;;3.90;1.90;;;10.80;85.60;;;9.57;87.82;98020.34;5031942;28;20553;-81
2021/10/06 05:59:46;;;;;;;3.60;2.20;;;10.70;85.90;;;9.72;88.81;98022.81;5026843;28;20476;-79
2021/10/06 06:02:15;;;;;;;4.10;2.93;;;10.80;86.20;;;9.56;88.39;98018.69;5018867;28;20469;-79
2021/10/06 06:04:42;;;;;;;4.30;2.10;;;10.80;86.10;;;9.61;89.23;98011.59;5024066;28;20474;-79
2021/10/06 06:07:10;;;;;;;4.57;2.63;;;10.70;86.50;;;9.85;88.01;98006.59;5031805;28;20918;-79
2021/10/06 06:09:37;;;;;;;4.37;1.60;;;10.90;86.00;;;9.87;86.40;98009.91;5029208;28;20826;-79
2021/10/06 06:12:15;;;;;;;2.93;2.20;;;11.00;84.80;;;9.84;87.42;98026.53;5026839;28;21161;-79
2021/10/06 06:14:43;;;;;;;3.40;1.83;;;11.00;84.60;;;9.76;87.63;98032.13;5025092;28;20546;-79
2021/10/06 06:17:11;;;;;;;3.43;1.90;;;11.00;84.70;;;9.62;88.57;98029.44;5025578;28;20959;-81
2021/10/06 06:19:38;;;;;;;2.73;1.70;;;10.80;85.30;;;9.66;88.50;98035.25;5020707;28;20470;-81
2021/10/06 06:22:05;;;;;;;4.23;2.07;;;10.80;85.70;;;9.58;88.41;98048.97;5022927;28;20452;-79
2021/10/06 06:24:32;;;;;;;5.00;2.40;;;10.70;86.10;;;9.38;89.96;98065.16;5028781;28;20482;-80
2021/10/06 06:26:59;;;;;;;3.10;1.90;;;10.60;87.10;;;9.45;89.40;98074.91;5025874;28;20494;-80
2021/10/06 06:29:26;;;;;;;3.10;2.10;;;10.70;87.30;;;9.38;90.31;98081.31;5027898;28;20465;-79
2021/10/06 06:31:55;;;;;;;2.20;1.93;;;10.60;87.20;;;9.42;90.45;98085.25;5028361;28;20468;-80
2021/10/06 06:34:22;;;;;;;3.53;1.80;;;10.60;86.80;;;9.60;88.96;98093.56;5026856;28;21240;-80
2021/10/06 06:36:50;;;;;;;3.60;1.80;;;10.70;87.10;;;9.75;88.40;98087.97;5025182;28;20516;-81
2021/10/06 06:39:17;;;;;;;12.00;1.97;;;10.90;86.70;;;9.81;87.41;98091.72;5027193;28;20494;-81
2021/10/06 06:41:44;;;;;;;4.27;1.80;;;11.00;85.70;;;9.78;88.24;98092.09;5022265;28;20498;-81
2021/10/06 06:44:11;;;;;;;3.40;2.07;;;11.00;85.10;;;10.02;87.73;98084.41;5022600;28;21113;-76
2021/10/06 06:46:39;;;;;;;4.57;2.00;;;11.10;85.00;;;9.95;87.83;98097.91;5027513;28;20459;-80
2021/10/06 06:49:08;;;;;;;5.40;1.83;;;11.10;84.60;;;10.09;85.93;98104.13;5029465;28;20462;-80
2021/10/06 06:51:35;;;;;;;4.23;2.20;;;11.30;83.80;;;10.28;85.34;98107.81;5026619;28;20552;-80
2021/10/06 06:54:03;;;;;;;3.23;2.20;;;11.30;83.60;;;10.55;84.60;98118.59;5038490;28;20455;-80
2021/10/06 06:56:31;;;;;;;2.50;2.03;;;11.60;83.10;;;10.37;84.88;98111.13;5027333;28;20478;-72
2021/10/06 06:58:58;;;;;;;2.13;1.60;;;11.50;82.60;;;10.29;85.04;98108.66;5025705;28;20631;-79
2021/10/06 07:01:24;;;;;;;3.07;1.90;;;11.50;82.20;;;10.40;84.70;98113.41;5023525;28;20902;-77
2021/10/06 07:03:51;;;;;;;3.00;2.10;;;11.50;82.40;;;10.39;84.77;98117.16;5025822;28;20545;-71
2021/10/06 07:06:20;;;;;;;2.33;1.77;;;11.60;82.00;;;10.49;83.35;98114.03;5025977;28;20947;-71
2021/10/06 07:08:48;;;;;;;1.90;1.70;;;11.70;81.40;;;10.35;83.77;98118.59;5028386;28;20453;-77
2021/10/06 07:11:15;;;;;;;3.37;1.70;;;11.60;80.80;;;10.52;82.50;98121.72;5022827;28;20478;-76
2021/10/06 07:13:42;;;;;;;4.00;1.57;;;11.60;80.70;;;10.39;82.54;98117.16;5017291;28;20459;-66
2021/10/06 07:16:09;;;;;;;2.37;1.57;;;11.60;80.30;;;10.47;83.20;98111.53;5022253;28;20997;-66
2021/10/06 07:18:36;;;;;;;4.40;1.70;;;11.60;80.00;;;10.38;81.47;98112.78;5029591;28;20468;-66
2021/10/06 07:21:03;;;;;;;5.10;1.43;;;11.60;78.90;;;10.60;80.89;98112.56;5025699;28;20486;-66
2021/10/06 07:23:31;;;;;;;4.83;1.47;;;11.70;78.80;;;10.71;80.99;98120.00;5029563;28;20468;-66
2021/10/06 07:25:58;;;;;;;3.70;2.43;;;11.80;78.50;;;10.74;80.71;98122.25;5028502;28;20477;-66
2021/10/06 07:28:25;;;;;;;3.13;1.77;;;11.90;78.10;;;10.95;78.68;98117.59;5030959;28;20549;-66
2021/10/06 07:30:52;;;;;;;3.70;1.60;;;12.00;76.80;;;10.99;78.24;98118.00;5026670;28;20458;-67
2021/10/06 07:33:19;;;;;;;3.30;1.77;;;12.10;76.30;;;10.66;79.23;98130.59;5030417;28;20458;-66
2021/10/06 07:35:46;;;;;;;1.20;1.07;;;11.90;75.70;;;10.98;77.75;98117.16;5029921;28;20481;-66
2021/10/06 07:38:14;;;;;;;4.53;2.00;;;12.00;75.10;;;10.86;78.94;98132.41;5031501;28;20555;-65
2021/10/06 07:40:42;;;;;;;2.27;1.57;;;12.00;75.50;;;11.15;77.67;98122.91;5030868;28;20549;-66
2021/10/06 07:43:09;;;;;;;5.63;1.80;;;12.20;75.30;;;11.34;76.15;98126.53;5028235;28;20826;-66
2021/10/06 07:45:36;;;;;;;6.47;2.77;;;12.40;74.20;;;11.37;75.66;98132.56;5028367;28;20480;-66
2021/10/06 07:48:03;;;;;;;3.73;1.50;;;12.40;73.70;;;11.49;74.76;98133.53;5031909;28;20458;-65
2021/10/06 07:50:30;;;;;;;2.70;1.30;;;12.50;73.10;;;11.50;73.66;98135.19;5030820;28;20476;-66
2021/10/06 07:52:57;;;;;;;4.37;1.33;;;12.60;72.10;;;11.43;74.71;98139.78;5030571;28;20985;-66
2021/10/06 07:55:24;;;;;;;2.20;1.17;;;12.60;71.80;;;11.57;73.94;98140.53;5031640;28;20478;-66
2021/10/06 07:57:52;;;;;;;4.37;1.30;;;12.70;71.20;;;11.60;73.45;98140.94;5031287;28;20451;-66
2021/10/06 08:00:19;;;;;;;2.13;1.27;;;12.70;70.60;;;11.48;73.93;98140.78;5029953;28;20828;-65
2021/10/06 08:02:46;;;;;;;2.20;1.73;;;12.70;70.70;;;11.19;75.79;98155.75;5027114;28;20442;-65
2021/10/06 08:05:13;;;;;;;2.00;0.87;;;12.60;71.10;;;11.59;73.88;98150.09;5032306;28;20478;-67
2021/10/06 08:07:40;;;;;;;1.37;1.03;;;12.60;71.20;;;11.46;74.09;98156.41;5029707;28;21468;-67
2021/10/06 08:10:09;;;;;;;1.50;0.80;;;12.60;70.90;;;11.64;74.56;98157.56;5030759;28;20553;-66
2021/10/06 08:12:36;;;;;;;2.17;1.20;;;12.70;71.20;;;11.76;73.89;98146.88;5029090;28;20553;-66
2021/10/06 08:15:06;;;;;;;2.67;1.03;;;12.80;71.00;;;11.54;75.96;98160.75;5028849;28;20474;-65
2021/10/06 08:17:32;;;;;;;2.23;1.10;;;12.70;71.60;;;11.69;75.75;98155.03;5030138;28;20815;-66
2021/10/06 08:19:59;;;;;;;1.20;1.10;;;12.70;72.20;;;11.87;75.27;98162.38;5027845;28;20549;-66
2021/10/06 08:22:26;;;;;;;4.33;1.60;;;12.80;72.00;;;12.32;73.87;98157.84;5028343;28;20466;-66
2021/10/06 08:24:53;;;;;;;2.30;1.10;;;13.20;71.80;;;12.09;73.94;98170.16;5028676;28;20576;-66
2021/10/06 08:27:20;;;;;;;4.47;1.53;;;13.30;71.20;;;11.99;74.71;98164.38;5029563;28;20465;-66
2021/10/06 08:29:47;;;;;;;3.53;1.70;;;13.20;71.40;;;12.46;73.34;98167.50;5029706;28;21077;-66
2021/10/06 08:32:16;;;;;;;3.17;1.33;;;13.40;71.20;;;12.45;73.19;98168.56;5026878;28;20549;-66
2021/10/06 08:34:42;;;;;;;3.50;1.50;;;13.50;70.70;;;12.37;74.35;98168.03;5025255;28;20511;-66
2021/10/06 08:37:09;;;;;;;3.40;2.00;;;13.50;71.20;;;12.57;72.06;98178.66;5025667;28;20474;-66
2021/10/06 08:39:36;;;;;;;1.80;1.30;;;13.60;70.00;;;12.56;72.38;98174.31;5026014;28;20545;-66
2021/10/06 08:42:07;;;;;;;3.20;1.40;;;13.70;70.10;;;12.30;73.06;98181.63;5025071;28;20470;-66
2021/10/06 08:44:35;;;;;;;2.90;1.33;;;13.50;69.90;;;11.93;74.55;98170.69;5025410;28;20559;-66
2021/10/06 08:47:03;;;;;;;1.93;1.20;;;13.30;70.10;;;11.80;75.19;98175.16;5026410;28;20473;-66
2021/10/06 08:49:31;;;;;;;3.60;1.70;;;13.00;70.60;;;12.06;74.83;98175.19;5029650;28;20482;-66
2021/10/06 08:51:58;;;;;;;2.70;1.57;;;13.10;71.40;;;11.88;76.60;98177.56;5027203;28;20497;-66
2021/10/06 08:54:26;;;;;;;1.40;1.30;;;13.10;72.10;;;12.18;75.33;98189.66;5028497;28;20482;-66
2021/10/06 08:56:53;;;;;;;5.90;1.73;;;13.20;72.00;;;12.45;75.09;98201.09;5027413;28;20473;-66
2021/10/06 08:59:20;;;;;;;2.03;1.30;;;13.40;72.30;;;12.58;74.23;98193.88;5027003;28;20469;-66
2021/10/06 09:01:47;;;;;;;2.80;1.10;;;13.60;71.60;;;12.61;75.05;98201.56;5028016;28;20971;-66
2021/10/06 09:04:14;;;;;;;2.80;1.53;;;13.70;71.60;;;12.78;74.07;98204.53;5026207;28;20842;-66
2021/10/06 09:06:44;;;;;;;6.10;1.90;;;13.80;71.40;;;12.87;73.78;98196.91;5026653;28;20975;-65
2021/10/06 09:09:17;;;;;;;1.90;1.27;;;14.00;71.10;;;12.78;72.42;98192.84;5026432;28;21161;-66
2021/10/06 09:11:48;;;;;;;4.33;1.40;;;13.90;69.90;;;12.77;71.98;98194.72;5027192;28;20496;-66
2021/10/06 09:14:15;;;;;;;2.93;1.40;;;13.90;69.30;;;12.69;72.09;98201.28;5027313;28;20517;-67
2021/10/06 09:16:43;;;;;;;1.90;1.27;;;13.90;69.20;;;12.69;72.59;98195.84;5027332;28;20478;-66
2021/10/06 09:19:12;;;;;;;3.77;2.83;;;13.90;69.90;;;12.92;71.36;98213.31;5040762;28;20560;-67
2021/10/06 09:21:57;;;;;;;4.20;1.90;;;13.90;69.10;;;13.03;70.94;98201.72;5027348;28;20871;-67
2021/10/06 09:24:25;;;;;;;1.87;1.47;;;14.10;68.60;;;13.30;69.85;98206.81;5029434;28;20561;-67
2021/10/06 09:27:04;;;;;;;2.93;1.27;;;14.30;68.30;;;13.30;68.55;98206.81;5025446;28;21196;-66
2021/10/06 09:29:31;;;;;;;4.60;3.10;;;14.40;67.00;;;13.42;67.44;98206.03;5029072;28;20457;-66
2021/10/06 09:31:58;;;;;;;6.50;4.50;;;14.40;66.40;;;13.63;66.93;98199.28;5026859;28;20910;-67
2021/10/06 09:34:27;;;;;;;3.43;1.87;;;14.60;66.10;;;13.74;67.25;98200.41;5028886;28;20569;-67
2021/10/06 09:36:53;;;;;;;2.37;1.17;;;14.70;66.30;;;13.51;67.57;98212.84;5026343;28;20474;-67
2021/10/06 09:39:23;;;;;;;2.30;1.10;;;14.60;65.70;;;13.24;68.45;98202.28;5027029;28;20465;-66
2021/10/06 09:41:51;;;;;;;5.43;3.00;;;14.50;66.10;;;13.53;68.42;98209.91;5025597;28;20466;-67
2021/10/06 09:44:21;;;;;;;2.70;2.00;;;14.60;66.40;;;14.04;66.21;98207.69;5026653;28;20466;-66
2021/10/06 09:46:52;;;;;;;4.50;1.20;;;14.90;65.80;;;14.08;64.29;98203.44;5027981;28;20451;-65
2021/10/06 09:49:27;;;;;;;2.70;1.13;;;15.20;63.80;;;13.45;67.91;98209.16;5026987;28;20450;-65
2021/10/06 09:52:14;;;;;;;5.20;2.00;;;14.80;65.00;;;13.29;69.43;98218.75;5025999;28;20485;-65
2021/10/06 09:54:48;;;;;;;5.27;1.23;;;14.50;66.00;;;13.51;69.64;98214.75;5028414;28;20478;-66
2021/10/06 09:57:28;;;;;;;4.80;3.40;;;14.50;66.60;;;13.37;69.34;98222.19;5026504;28;20845;-66
2021/10/06 09:59:56;;;;;;;4.20;1.87;;;14.50;66.70;;;13.63;68.47;98212.06;5028825;28;21029;-66
2021/10/06 10:02:26;;;;;;;3.03;1.13;;;14.60;66.50;;;14.15;64.74;98215.00;5024941;28;20470;-67
2021/10/06 10:04:54;;;;;;;1.80;1.50;;;14.90;64.70;;;14.17;65.21;98210.16;5028231;28;20482;-66
2021/10/06 10:07:22;;;;;;;4.00;1.57;;;15.10;64.20;;;14.01;63.99;98224.44;5025279;28;20466;-66
2021/10/06 10:09:51;;;;;;;1.93;1.07;;;15.20;62.70;;;13.79;66.08;98235.84;5022911;28;20537;-64
2021/10/06 10:12:20;;;;;;;3.03;1.40;;;14.90;63.60;;;13.51;63.91;98237.25;5018840;28;21213;-66
2021/10/06 10:14:47;;;;;;;2.83;1.43;;;14.80;61.60;;;13.54;64.42;98239.50;5020287;28;20478;-76
2021/10/06 10:17:15;;;;;;;3.37;2.20;;;14.70;62.20;;;13.52;65.00;98240.81;5023155;28;20502;-77
2021/10/06 10:19:43;;;;;;;2.43;1.20;;;14.60;62.80;;;13.13;65.73;98238.34;5021542;28;20454;-76
2021/10/06 10:22:12;;;;;;;3.70;1.27;;;14.30;62.30;;;12.87;66.90;98232.16;5029220;28;20478;-78
2021/10/06 10:24:47;;;;;;;3.70;1.40;;;14.10;63.10;;;12.83;67.16;98229.06;5040003;28;20488;-78